sensor_id;sensor_type;location;lat;lon;timestamp;P1;durP1;ratioP1;P2;durP2;ratioP2
72791;SDS011;60907;53.268;8.764;2023-12-20T00:00:52;7.72;;;1.00;;
72791;SDS011;60907;53.268;8.764;2023-12-20T00:03:17;6.87;;;1.03;;
72791;SDS011;60907;53.268;8.764;2023-12-20T00:05:43;6.75;;;1.77;;
72791;SDS011;60907;53.268;8.764;2023-12-20T00:08:08;9.60;;;1.13;;
72791;SDS011;60907;53.268;8.764;2023-12-20T00:10:34;5.03;;;0.90;;
72791;SDS011;60907;53.268;8.764;2023-12-20T00:13:00;7.57;;;1.52;;
72791;SDS011;60907;53.268;8.764;2023-12-20T00:15:25;9.70;;;1.23;;
72791;SDS011;60907;53.268;8.764;2023-12-20T00:17:50;5.32;;;1.85;;
72791;SDS011;60907;53.268;8.764;2023-12-20T00:20:16;5.55;;;2.13;;
72791;SDS011;60907;53.268;8.764;2023-12-20T00:22:41;5.33;;;1.10;;
72791;SDS011;60907;53.268;8.764;2023-12-20T00:25:07;9.52;;;2.10;;
72791;SDS011;60907;53.268;8.764;2023-12-20T00:27:32;7.45;;;1.40;;
72791;SDS011;60907;53.268;8.764;2023-12-20T00:29:58;3.67;;;0.50;;
72791;SDS011;60907;53.268;8.764;2023-12-20T00:32:23;8.00;;;1.75;;
72791;SDS011;60907;53.268;8.764;2023-12-20T00:34:49;5.23;;;1.17;;
72791;SDS011;60907;53.268;8.764;2023-12-20T00:37:14;10.48;;;1.38;;
72791;SDS011;60907;53.268;8.764;2023-12-20T00:39:39;11.00;;;1.38;;
72791;SDS011;60907;53.268;8.764;2023-12-20T00:42:05;7.63;;;1.58;;
72791;SDS011;60907;53.268;8.764;2023-12-20T00:44:30;5.25;;;1.17;;
72791;SDS011;60907;53.268;8.764;2023-12-20T00:46:56;5.20;;;1.03;;
72791;SDS011;60907;53.268;8.764;2023-12-20T00:49:22;1.38;;;0.73;;
72791;SDS011;60907;53.268;8.764;2023-12-20T00:51:47;7.35;;;1.40;;
72791;SDS011;60907;53.268;8.764;2023-12-20T00:54:15;7.07;;;1.20;;
72791;SDS011;60907;53.268;8.764;2023-12-20T00:56:41;6.10;;;0.93;;
72791;SDS011;60907;53.268;8.764;2023-12-20T00:59:06;10.57;;;1.70;;
72791;SDS011;60907;53.268;8.764;2023-12-20T01:01:31;7.00;;;0.88;;
72791;SDS011;60907;53.268;8.764;2023-12-20T01:03:58;6.45;;;1.08;;
72791;SDS011;60907;53.268;8.764;2023-12-20T01:06:23;6.85;;;1.10;;
72791;SDS011;60907;53.268;8.764;2023-12-20T01:08:49;4.47;;;1.13;;
72791;SDS011;60907;53.268;8.764;2023-12-20T01:11:14;4.27;;;0.93;;
72791;SDS011;60907;53.268;8.764;2023-12-20T01:13:40;5.97;;;0.73;;
72791;SDS011;60907;53.268;8.764;2023-12-20T01:16:05;3.28;;;0.70;;
72791;SDS011;60907;53.268;8.764;2023-12-20T01:18:31;5.30;;;1.25;;
72791;SDS011;60907;53.268;8.764;2023-12-20T01:21:00;10.70;;;1.30;;
72791;SDS011;60907;53.268;8.764;2023-12-20T01:23:27;3.97;;;0.50;;
72791;SDS011;60907;53.268;8.764;2023-12-20T01:25:52;5.00;;;1.15;;
72791;SDS011;60907;53.268;8.764;2023-12-20T01:28:19;4.32;;;1.20;;
72791;SDS011;60907;53.268;8.764;2023-12-20T01:30:44;4.07;;;0.93;;
72791;SDS011;60907;53.268;8.764;2023-12-20T01:33:10;7.60;;;1.45;;
72791;SDS011;60907;53.268;8.764;2023-12-20T01:35:35;6.40;;;1.27;;
72791;SDS011;60907;53.268;8.764;2023-12-20T01:38:01;3.65;;;0.93;;
72791;SDS011;60907;53.268;8.764;2023-12-20T01:40:26;6.75;;;1.25;;
72791;SDS011;60907;53.268;8.764;2023-12-20T01:42:58;6.27;;;0.80;;
72791;SDS011;60907;53.268;8.764;2023-12-20T01:45:24;4.00;;;1.52;;
72791;SDS011;60907;53.268;8.764;2023-12-20T01:47:53;8.85;;;1.52;;
72791;SDS011;60907;53.268;8.764;2023-12-20T01:50:20;9.35;;;1.88;;
72791;SDS011;60907;53.268;8.764;2023-12-20T01:52:46;7.70;;;1.13;;
72791;SDS011;60907;53.268;8.764;2023-12-20T01:55:11;6.78;;;1.08;;
72791;SDS011;60907;53.268;8.764;2023-12-20T01:57:40;4.10;;;1.00;;
72791;SDS011;60907;53.268;8.764;2023-12-20T02:00:06;2.00;;;0.80;;
72791;SDS011;60907;53.268;8.764;2023-12-20T02:02:34;6.90;;;1.00;;
72791;SDS011;60907;53.268;8.764;2023-12-20T02:05:02;7.32;;;0.82;;
72791;SDS011;60907;53.268;8.764;2023-12-20T02:07:28;8.77;;;1.00;;
72791;SDS011;60907;53.268;8.764;2023-12-20T02:09:54;11.48;;;1.02;;
72791;SDS011;60907;53.268;8.764;2023-12-20T02:12:20;9.90;;;1.58;;
72791;SDS011;60907;53.268;8.764;2023-12-20T02:14:46;3.53;;;1.13;;
72791;SDS011;60907;53.268;8.764;2023-12-20T02:17:12;8.15;;;0.73;;
72791;SDS011;60907;53.268;8.764;2023-12-20T02:19:37;8.77;;;0.95;;
72791;SDS011;60907;53.268;8.764;2023-12-20T02:22:12;1.17;;;0.33;;
72791;SDS011;60907;53.268;8.764;2023-12-20T02:24:37;5.13;;;1.17;;
72791;SDS011;60907;53.268;8.764;2023-12-20T02:27:04;3.60;;;0.75;;
72791;SDS011;60907;53.268;8.764;2023-12-20T02:29:31;6.07;;;1.17;;
72791;SDS011;60907;53.268;8.764;2023-12-20T02:31:57;6.35;;;0.75;;
72791;SDS011;60907;53.268;8.764;2023-12-20T02:34:23;5.15;;;0.85;;
72791;SDS011;60907;53.268;8.764;2023-12-20T02:36:48;5.90;;;1.10;;
72791;SDS011;60907;53.268;8.764;2023-12-20T02:39:14;3.17;;;0.93;;
72791;SDS011;60907;53.268;8.764;2023-12-20T02:41:39;5.15;;;0.60;;
72791;SDS011;60907;53.268;8.764;2023-12-20T02:44:04;9.02;;;0.90;;
72791;SDS011;60907;53.268;8.764;2023-12-20T02:46:30;6.40;;;1.50;;
72791;SDS011;60907;53.268;8.764;2023-12-20T02:48:55;5.47;;;0.82;;
72791;SDS011;60907;53.268;8.764;2023-12-20T02:51:21;8.48;;;1.90;;
72791;SDS011;60907;53.268;8.764;2023-12-20T02:53:46;7.25;;;0.98;;
72791;SDS011;60907;53.268;8.764;2023-12-20T02:56:11;7.97;;;1.42;;
72791;SDS011;60907;53.268;8.764;2023-12-20T02:58:37;6.50;;;1.30;;
72791;SDS011;60907;53.268;8.764;2023-12-20T03:01:02;6.80;;;1.05;;
72791;SDS011;60907;53.268;8.764;2023-12-20T03:03:28;8.90;;;1.00;;
72791;SDS011;60907;53.268;8.764;2023-12-20T03:05:53;3.55;;;0.73;;
72791;SDS011;60907;53.268;8.764;2023-12-20T03:08:19;9.00;;;1.10;;
72791;SDS011;60907;53.268;8.764;2023-12-20T03:10:44;7.60;;;1.67;;
72791;SDS011;60907;53.268;8.764;2023-12-20T03:13:10;5.70;;;1.80;;
72791;SDS011;60907;53.268;8.764;2023-12-20T03:15:35;5.00;;;0.73;;
72791;SDS011;60907;53.268;8.764;2023-12-20T03:18:01;7.78;;;1.27;;
72791;SDS011;60907;53.268;8.764;2023-12-20T03:20:26;4.93;;;0.77;;
72791;SDS011;60907;53.268;8.764;2023-12-20T03:22:52;4.07;;;1.05;;
72791;SDS011;60907;53.268;8.764;2023-12-20T03:25:17;6.80;;;1.00;;
72791;SDS011;60907;53.268;8.764;2023-12-20T03:27:42;4.97;;;1.07;;
72791;SDS011;60907;53.268;8.764;2023-12-20T03:30:08;4.95;;;1.13;;
72791;SDS011;60907;53.268;8.764;2023-12-20T03:32:34;4.90;;;0.90;;
72791;SDS011;60907;53.268;8.764;2023-12-20T03:34:59;9.48;;;1.48;;
72791;SDS011;60907;53.268;8.764;2023-12-20T03:37:25;5.35;;;1.38;;
72791;SDS011;60907;53.268;8.764;2023-12-20T03:39:50;5.20;;;0.93;;
72791;SDS011;60907;53.268;8.764;2023-12-20T03:42:15;6.00;;;1.50;;
72791;SDS011;60907;53.268;8.764;2023-12-20T03:44:41;9.07;;;2.08;;
72791;SDS011;60907;53.268;8.764;2023-12-20T03:47:06;10.02;;;1.40;;
72791;SDS011;60907;53.268;8.764;2023-12-20T03:49:32;8.02;;;1.35;;
72791;SDS011;60907;53.268;8.764;2023-12-20T03:51:58;6.80;;;1.20;;
72791;SDS011;60907;53.268;8.764;2023-12-20T03:54:23;9.77;;;1.45;;
72791;SDS011;60907;53.268;8.764;2023-12-20T03:56:49;7.45;;;0.80;;
72791;SDS011;60907;53.268;8.764;2023-12-20T03:59:15;5.68;;;1.20;;
72791;SDS011;60907;53.268;8.764;2023-12-20T04:01:44;8.80;;;1.27;;
72791;SDS011;60907;53.268;8.764;2023-12-20T04:04:10;3.63;;;1.27;;
72791;SDS011;60907;53.268;8.764;2023-12-20T04:06:36;3.05;;;0.77;;
72791;SDS011;60907;53.268;8.764;2023-12-20T04:09:01;3.92;;;1.08;;
72791;SDS011;60907;53.268;8.764;2023-12-20T04:11:27;8.77;;;1.95;;
72791;SDS011;60907;53.268;8.764;2023-12-20T04:13:52;5.55;;;1.70;;
72791;SDS011;60907;53.268;8.764;2023-12-20T04:16:18;3.60;;;0.98;;
72791;SDS011;60907;53.268;8.764;2023-12-20T04:18:43;7.13;;;0.90;;
72791;SDS011;60907;53.268;8.764;2023-12-20T04:21:09;7.93;;;1.25;;
72791;SDS011;60907;53.268;8.764;2023-12-20T04:23:34;9.55;;;1.48;;
72791;SDS011;60907;53.268;8.764;2023-12-20T04:25:59;6.93;;;1.38;;
72791;SDS011;60907;53.268;8.764;2023-12-20T04:28:25;4.05;;;1.00;;
72791;SDS011;60907;53.268;8.764;2023-12-20T04:30:50;7.13;;;1.42;;
72791;SDS011;60907;53.268;8.764;2023-12-20T04:33:16;2.75;;;0.80;;
72791;SDS011;60907;53.268;8.764;2023-12-20T04:35:41;7.55;;;1.73;;
72791;SDS011;60907;53.268;8.764;2023-12-20T04:38:08;4.40;;;1.48;;
72791;SDS011;60907;53.268;8.764;2023-12-20T04:40:34;9.23;;;1.23;;
72791;SDS011;60907;53.268;8.764;2023-12-20T04:42:59;4.22;;;1.40;;
72791;SDS011;60907;53.268;8.764;2023-12-20T04:45:26;10.50;;;1.52;;
72791;SDS011;60907;53.268;8.764;2023-12-20T04:47:51;8.40;;;1.42;;
72791;SDS011;60907;53.268;8.764;2023-12-20T04:50:17;13.50;;;1.83;;
72791;SDS011;60907;53.268;8.764;2023-12-20T04:52:42;8.30;;;1.10;;
72791;SDS011;60907;53.268;8.764;2023-12-20T04:55:08;5.70;;;1.65;;
72791;SDS011;60907;53.268;8.764;2023-12-20T04:57:34;11.25;;;1.25;;
72791;SDS011;60907;53.268;8.764;2023-12-20T05:00:00;4.20;;;0.77;;
72791;SDS011;60907;53.268;8.764;2023-12-20T05:02:25;5.93;;;1.55;;
72791;SDS011;60907;53.268;8.764;2023-12-20T05:04:51;10.38;;;0.90;;
72791;SDS011;60907;53.268;8.764;2023-12-20T05:07:16;7.65;;;0.93;;
72791;SDS011;60907;53.268;8.764;2023-12-20T05:09:42;5.35;;;1.48;;
72791;SDS011;60907;53.268;8.764;2023-12-20T05:12:07;8.02;;;1.33;;
72791;SDS011;60907;53.268;8.764;2023-12-20T05:14:33;7.95;;;1.58;;
72791;SDS011;60907;53.268;8.764;2023-12-20T05:16:58;15.70;;;1.33;;
72791;SDS011;60907;53.268;8.764;2023-12-20T05:19:24;9.07;;;1.63;;
72791;SDS011;60907;53.268;8.764;2023-12-20T05:21:50;8.77;;;1.08;;
72791;SDS011;60907;53.268;8.764;2023-12-20T05:24:15;7.03;;;1.15;;
72791;SDS011;60907;53.268;8.764;2023-12-20T05:26:41;7.22;;;1.30;;
72791;SDS011;60907;53.268;8.764;2023-12-20T05:29:06;7.43;;;1.20;;
72791;SDS011;60907;53.268;8.764;2023-12-20T05:31:32;11.63;;;1.80;;
72791;SDS011;60907;53.268;8.764;2023-12-20T05:33:57;13.02;;;2.03;;
72791;SDS011;60907;53.268;8.764;2023-12-20T05:36:23;6.63;;;1.83;;
72791;SDS011;60907;53.268;8.764;2023-12-20T05:38:48;7.28;;;1.30;;
72791;SDS011;60907;53.268;8.764;2023-12-20T05:41:14;9.27;;;1.52;;
72791;SDS011;60907;53.268;8.764;2023-12-20T05:43:39;4.97;;;1.60;;
72791;SDS011;60907;53.268;8.764;2023-12-20T05:46:05;6.28;;;1.40;;
72791;SDS011;60907;53.268;8.764;2023-12-20T05:48:30;6.43;;;1.33;;
72791;SDS011;60907;53.268;8.764;2023-12-20T05:50:56;8.55;;;1.58;;
72791;SDS011;60907;53.268;8.764;2023-12-20T05:53:21;10.30;;;1.38;;
72791;SDS011;60907;53.268;8.764;2023-12-20T05:55:47;10.93;;;1.88;;
72791;SDS011;60907;53.268;8.764;2023-12-20T05:58:12;9.05;;;1.90;;
72791;SDS011;60907;53.268;8.764;2023-12-20T06:00:38;6.70;;;1.70;;
72791;SDS011;60907;53.268;8.764;2023-12-20T06:03:03;7.60;;;1.88;;
72791;SDS011;60907;53.268;8.764;2023-12-20T06:05:30;8.85;;;1.83;;
72791;SDS011;60907;53.268;8.764;2023-12-20T06:07:56;9.63;;;1.67;;
72791;SDS011;60907;53.268;8.764;2023-12-20T06:10:26;9.50;;;1.35;;
72791;SDS011;60907;53.268;8.764;2023-12-20T06:12:52;13.18;;;1.92;;
72791;SDS011;60907;53.268;8.764;2023-12-20T06:15:17;9.80;;;1.52;;
72791;SDS011;60907;53.268;8.764;2023-12-20T06:17:43;8.55;;;1.80;;
72791;SDS011;60907;53.268;8.764;2023-12-20T06:20:09;6.28;;;1.52;;
72791;SDS011;60907;53.268;8.764;2023-12-20T06:22:35;6.82;;;1.30;;
72791;SDS011;60907;53.268;8.764;2023-12-20T06:25:01;11.57;;;2.22;;
72791;SDS011;60907;53.268;8.764;2023-12-20T06:27:28;9.55;;;2.20;;
72791;SDS011;60907;53.268;8.764;2023-12-20T06:29:53;15.27;;;2.60;;
72791;SDS011;60907;53.268;8.764;2023-12-20T06:32:19;7.25;;;2.00;;
72791;SDS011;60907;53.268;8.764;2023-12-20T06:34:45;7.28;;;1.30;;
72791;SDS011;60907;53.268;8.764;2023-12-20T06:37:10;10.30;;;2.38;;
72791;SDS011;60907;53.268;8.764;2023-12-20T06:39:36;10.00;;;1.90;;
72791;SDS011;60907;53.268;8.764;2023-12-20T06:42:01;9.25;;;1.77;;
72791;SDS011;60907;53.268;8.764;2023-12-20T06:44:27;10.02;;;1.60;;
72791;SDS011;60907;53.268;8.764;2023-12-20T06:46:52;3.97;;;1.25;;
72791;SDS011;60907;53.268;8.764;2023-12-20T06:49:18;8.25;;;2.42;;
72791;SDS011;60907;53.268;8.764;2023-12-20T06:51:43;8.65;;;2.53;;
72791;SDS011;60907;53.268;8.764;2023-12-20T06:54:09;12.23;;;2.08;;
72791;SDS011;60907;53.268;8.764;2023-12-20T06:56:34;13.10;;;1.90;;
72791;SDS011;60907;53.268;8.764;2023-12-20T06:59:00;9.68;;;1.92;;
72791;SDS011;60907;53.268;8.764;2023-12-20T07:01:25;7.68;;;1.65;;
72791;SDS011;60907;53.268;8.764;2023-12-20T07:03:51;10.18;;;1.98;;
72791;SDS011;60907;53.268;8.764;2023-12-20T07:06:17;8.25;;;1.60;;
72791;SDS011;60907;53.268;8.764;2023-12-20T07:08:42;7.57;;;1.67;;
72791;SDS011;60907;53.268;8.764;2023-12-20T07:11:08;8.25;;;1.45;;
72791;SDS011;60907;53.268;8.764;2023-12-20T07:13:33;8.85;;;2.10;;
72791;SDS011;60907;53.268;8.764;2023-12-20T07:15:59;15.95;;;2.72;;
72791;SDS011;60907;53.268;8.764;2023-12-20T07:18:24;11.00;;;2.55;;
72791;SDS011;60907;53.268;8.764;2023-12-20T07:20:50;7.80;;;1.58;;
72791;SDS011;60907;53.268;8.764;2023-12-20T07:23:15;12.57;;;2.10;;
72791;SDS011;60907;53.268;8.764;2023-12-20T07:25:41;10.15;;;2.67;;
72791;SDS011;60907;53.268;8.764;2023-12-20T07:28:06;12.38;;;1.55;;
72791;SDS011;60907;53.268;8.764;2023-12-20T07:30:32;6.10;;;1.13;;
72791;SDS011;60907;53.268;8.764;2023-12-20T07:32:57;7.07;;;1.98;;
72791;SDS011;60907;53.268;8.764;2023-12-20T07:35:23;7.93;;;3.05;;
72791;SDS011;60907;53.268;8.764;2023-12-20T07:37:48;14.98;;;2.03;;
72791;SDS011;60907;53.268;8.764;2023-12-20T07:40:14;14.10;;;1.83;;
72791;SDS011;60907;53.268;8.764;2023-12-20T07:42:42;7.35;;;2.10;;
72791;SDS011;60907;53.268;8.764;2023-12-20T07:45:07;12.57;;;2.03;;
72791;SDS011;60907;53.268;8.764;2023-12-20T07:47:34;6.90;;;1.52;;
72791;SDS011;60907;53.268;8.764;2023-12-20T07:49:59;6.72;;;1.98;;
72791;SDS011;60907;53.268;8.764;2023-12-20T07:52:25;6.45;;;1.48;;
72791;SDS011;60907;53.268;8.764;2023-12-20T07:54:51;9.45;;;1.50;;
72791;SDS011;60907;53.268;8.764;2023-12-20T07:57:16;11.45;;;1.58;;
72791;SDS011;60907;53.268;8.764;2023-12-20T07:59:42;3.83;;;1.35;;
72791;SDS011;60907;53.268;8.764;2023-12-20T08:02:09;15.88;;;2.33;;
72791;SDS011;60907;53.268;8.764;2023-12-20T08:04:34;9.95;;;1.77;;
72791;SDS011;60907;53.268;8.764;2023-12-20T08:07:00;10.30;;;2.80;;
72791;SDS011;60907;53.268;8.764;2023-12-20T08:09:26;16.50;;;2.35;;
72791;SDS011;60907;53.268;8.764;2023-12-20T08:11:51;15.75;;;2.50;;
72791;SDS011;60907;53.268;8.764;2023-12-20T08:14:17;17.92;;;2.97;;
72791;SDS011;60907;53.268;8.764;2023-12-20T08:16:42;7.22;;;1.98;;
72791;SDS011;60907;53.268;8.764;2023-12-20T08:19:07;10.93;;;2.10;;
72791;SDS011;60907;53.268;8.764;2023-12-20T08:21:33;8.50;;;1.98;;
72791;SDS011;60907;53.268;8.764;2023-12-20T08:23:59;11.05;;;1.70;;
72791;SDS011;60907;53.268;8.764;2023-12-20T08:26:25;13.23;;;2.35;;
72791;SDS011;60907;53.268;8.764;2023-12-20T08:28:51;11.18;;;1.65;;
72791;SDS011;60907;53.268;8.764;2023-12-20T08:31:17;9.35;;;1.80;;
72791;SDS011;60907;53.268;8.764;2023-12-20T08:33:43;11.65;;;2.33;;
72791;SDS011;60907;53.268;8.764;2023-12-20T08:36:09;10.55;;;2.25;;
72791;SDS011;60907;53.268;8.764;2023-12-20T08:38:35;11.50;;;2.03;;
72791;SDS011;60907;53.268;8.764;2023-12-20T08:41:01;8.75;;;1.95;;
72791;SDS011;60907;53.268;8.764;2023-12-20T08:43:28;10.23;;;1.83;;
72791;SDS011;60907;53.268;8.764;2023-12-20T08:45:53;13.40;;;1.70;;
72791;SDS011;60907;53.268;8.764;2023-12-20T08:48:19;12.02;;;2.63;;
72791;SDS011;60907;53.268;8.764;2023-12-20T08:50:44;11.90;;;1.88;;
72791;SDS011;60907;53.268;8.764;2023-12-20T08:53:11;5.95;;;1.60;;
72791;SDS011;60907;53.268;8.764;2023-12-20T08:55:37;7.72;;;1.98;;
72791;SDS011;60907;53.268;8.764;2023-12-20T08:58:02;10.98;;;2.08;;
72791;SDS011;60907;53.268;8.764;2023-12-20T09:00:28;12.88;;;2.45;;
72791;SDS011;60907;53.268;8.764;2023-12-20T09:02:55;15.05;;;2.58;;
72791;SDS011;60907;53.268;8.764;2023-12-20T09:05:20;11.90;;;2.83;;
72791;SDS011;60907;53.268;8.764;2023-12-20T09:07:46;8.25;;;1.77;;
72791;SDS011;60907;53.268;8.764;2023-12-20T09:10:12;10.30;;;2.20;;
72791;SDS011;60907;53.268;8.764;2023-12-20T09:12:37;12.77;;;2.40;;
72791;SDS011;60907;53.268;8.764;2023-12-20T09:15:06;11.63;;;1.98;;
72791;SDS011;60907;53.268;8.764;2023-12-20T09:17:31;3.85;;;0.50;;
72791;SDS011;60907;53.268;8.764;2023-12-20T09:19:57;4.65;;;0.47;;
72791;SDS011;60907;53.268;8.764;2023-12-20T09:24:49;1.53;;;0.40;;
72791;SDS011;60907;53.268;8.764;2023-12-20T09:27:15;1.13;;;0.70;;
72791;SDS011;60907;53.268;8.764;2023-12-20T09:29:40;1.77;;;0.20;;
72791;SDS011;60907;53.268;8.764;2023-12-20T09:32:06;4.60;;;0.40;;
72791;SDS011;60907;53.268;8.764;2023-12-20T09:34:31;2.85;;;0.50;;
72791;SDS011;60907;53.268;8.764;2023-12-20T09:36:57;2.90;;;0.47;;
72791;SDS011;60907;53.268;8.764;2023-12-20T09:39:22;4.05;;;0.32;;
72791;SDS011;60907;53.268;8.764;2023-12-20T09:41:56;2.90;;;0.32;;
72791;SDS011;60907;53.268;8.764;2023-12-20T09:44:23;4.45;;;0.63;;
72791;SDS011;60907;53.268;8.764;2023-12-20T09:46:49;3.53;;;0.40;;
72791;SDS011;60907;53.268;8.764;2023-12-20T09:49:17;4.88;;;0.60;;
72791;SDS011;60907;53.268;8.764;2023-12-20T09:51:43;3.13;;;0.30;;
72791;SDS011;60907;53.268;8.764;2023-12-20T09:54:11;5.55;;;0.68;;
72791;SDS011;60907;53.268;8.764;2023-12-20T09:56:39;3.60;;;0.82;;
72791;SDS011;60907;53.268;8.764;2023-12-20T09:59:04;2.10;;;0.47;;
72791;SDS011;60907;53.268;8.764;2023-12-20T10:01:30;2.05;;;0.40;;
72791;SDS011;60907;53.268;8.764;2023-12-20T10:03:55;2.97;;;0.50;;
72791;SDS011;60907;53.268;8.764;2023-12-20T10:06:21;5.78;;;1.10;;
72791;SDS011;60907;53.268;8.764;2023-12-20T10:08:47;2.95;;;0.40;;
72791;SDS011;60907;53.268;8.764;2023-12-20T10:11:12;3.25;;;0.75;;
72791;SDS011;60907;53.268;8.764;2023-12-20T10:13:39;3.42;;;0.90;;
72791;SDS011;60907;53.268;8.764;2023-12-20T10:16:08;2.70;;;0.47;;
72791;SDS011;60907;53.268;8.764;2023-12-20T10:18:34;4.97;;;0.65;;
72791;SDS011;60907;53.268;8.764;2023-12-20T10:21:03;4.50;;;0.77;;
72791;SDS011;60907;53.268;8.764;2023-12-20T10:23:29;3.05;;;0.40;;
72791;SDS011;60907;53.268;8.764;2023-12-20T10:25:56;7.93;;;0.60;;
72791;SDS011;60907;53.268;8.764;2023-12-20T10:28:23;2.75;;;0.50;;
72791;SDS011;60907;53.268;8.764;2023-12-20T10:30:52;6.05;;;0.60;;
72791;SDS011;60907;53.268;8.764;2023-12-20T10:33:28;2.65;;;0.50;;
72791;SDS011;60907;53.268;8.764;2023-12-20T10:35:55;2.50;;;0.50;;
72791;SDS011;60907;53.268;8.764;2023-12-20T10:38:21;3.58;;;0.65;;
72791;SDS011;60907;53.268;8.764;2023-12-20T10:40:47;5.70;;;0.68;;
72791;SDS011;60907;53.268;8.764;2023-12-20T10:43:12;4.15;;;0.90;;
72791;SDS011;60907;53.268;8.764;2023-12-20T10:45:41;1.80;;;0.43;;
72791;SDS011;60907;53.268;8.764;2023-12-20T10:48:09;4.65;;;0.30;;
72791;SDS011;60907;53.268;8.764;2023-12-20T10:50:36;3.15;;;0.47;;
72791;SDS011;60907;53.268;8.764;2023-12-20T10:53:06;3.70;;;0.50;;
72791;SDS011;60907;53.268;8.764;2023-12-20T10:55:32;3.58;;;0.55;;
72791;SDS011;60907;53.268;8.764;2023-12-20T10:58:01;4.38;;;0.75;;
72791;SDS011;60907;53.268;8.764;2023-12-20T11:00:31;2.83;;;0.38;;
72791;SDS011;60907;53.268;8.764;2023-12-20T11:02:58;5.03;;;0.70;;
72791;SDS011;60907;53.268;8.764;2023-12-20T11:11:07;1.98;;;0.40;;
72791;SDS011;60907;53.268;8.764;2023-12-20T11:13:37;3.45;;;0.80;;
72791;SDS011;60907;53.268;8.764;2023-12-20T11:16:05;3.58;;;0.73;;
72791;SDS011;60907;53.268;8.764;2023-12-20T11:18:31;4.60;;;0.55;;
72791;SDS011;60907;53.268;8.764;2023-12-20T11:21:01;3.47;;;0.47;;
72791;SDS011;60907;53.268;8.764;2023-12-20T11:23:29;4.55;;;1.00;;
72791;SDS011;60907;53.268;8.764;2023-12-20T11:25:56;6.43;;;0.77;;
72791;SDS011;60907;53.268;8.764;2023-12-20T11:28:25;6.15;;;0.98;;
72791;SDS011;60907;53.268;8.764;2023-12-20T11:30:52;4.25;;;0.50;;
72791;SDS011;60907;53.268;8.764;2023-12-20T11:33:23;7.07;;;0.95;;
72791;SDS011;60907;53.268;8.764;2023-12-20T11:35:50;4.57;;;0.70;;
72791;SDS011;60907;53.268;8.764;2023-12-20T11:38:16;5.38;;;0.90;;
72791;SDS011;60907;53.268;8.764;2023-12-20T11:40:42;6.68;;;0.95;;
72791;SDS011;60907;53.268;8.764;2023-12-20T11:43:08;6.20;;;1.08;;
72791;SDS011;60907;53.268;8.764;2023-12-20T11:45:34;5.22;;;0.65;;
72791;SDS011;60907;53.268;8.764;2023-12-20T11:48:00;6.35;;;0.63;;
72791;SDS011;60907;53.268;8.764;2023-12-20T11:50:27;7.45;;;0.90;;
72791;SDS011;60907;53.268;8.764;2023-12-20T11:52:54;3.28;;;0.70;;
72791;SDS011;60907;53.268;8.764;2023-12-20T11:55:23;5.22;;;1.08;;
72791;SDS011;60907;53.268;8.764;2023-12-20T11:57:52;9.75;;;0.50;;
72791;SDS011;60907;53.268;8.764;2023-12-20T12:00:18;5.65;;;1.25;;
72791;SDS011;60907;53.268;8.764;2023-12-20T12:02:54;1.77;;;0.68;;
72791;SDS011;60907;53.268;8.764;2023-12-20T12:05:20;5.03;;;0.70;;
72791;SDS011;60907;53.268;8.764;2023-12-20T12:07:46;5.03;;;0.57;;
72791;SDS011;60907;53.268;8.764;2023-12-20T12:10:11;7.03;;;1.17;;
72791;SDS011;60907;53.268;8.764;2023-12-20T12:12:37;4.57;;;1.02;;
72791;SDS011;60907;53.268;8.764;2023-12-20T12:15:02;5.13;;;0.90;;
72791;SDS011;60907;53.268;8.764;2023-12-20T12:17:28;6.47;;;0.73;;
72791;SDS011;60907;53.268;8.764;2023-12-20T12:20:01;3.70;;;0.70;;
72791;SDS011;60907;53.268;8.764;2023-12-20T12:22:28;5.75;;;1.50;;
72791;SDS011;60907;53.268;8.764;2023-12-20T12:24:54;4.57;;;0.82;;
72791;SDS011;60907;53.268;8.764;2023-12-20T12:27:19;3.90;;;1.13;;
72791;SDS011;60907;53.268;8.764;2023-12-20T12:30:03;5.70;;;0.73;;
72791;SDS011;60907;53.268;8.764;2023-12-20T12:32:32;5.32;;;0.70;;
72791;SDS011;60907;53.268;8.764;2023-12-20T12:34:57;9.05;;;1.02;;
72791;SDS011;60907;53.268;8.764;2023-12-20T12:37:23;6.97;;;0.88;;
72791;SDS011;60907;53.268;8.764;2023-12-20T12:39:49;3.25;;;1.00;;
72791;SDS011;60907;53.268;8.764;2023-12-20T12:42:15;2.72;;;0.95;;
72791;SDS011;60907;53.268;8.764;2023-12-20T12:44:40;8.55;;;1.45;;
72791;SDS011;60907;53.268;8.764;2023-12-20T12:47:06;7.20;;;0.98;;
72791;SDS011;60907;53.268;8.764;2023-12-20T12:49:32;6.05;;;0.88;;
72791;SDS011;60907;53.268;8.764;2023-12-20T12:51:57;5.55;;;1.17;;
72791;SDS011;60907;53.268;8.764;2023-12-20T12:54:23;5.35;;;0.82;;
72791;SDS011;60907;53.268;8.764;2023-12-20T12:56:49;5.10;;;1.42;;
72791;SDS011;60907;53.268;8.764;2023-12-20T12:59:15;7.90;;;1.05;;
72791;SDS011;60907;53.268;8.764;2023-12-20T13:01:41;6.93;;;0.93;;
72791;SDS011;60907;53.268;8.764;2023-12-20T13:04:07;4.65;;;0.95;;
72791;SDS011;60907;53.268;8.764;2023-12-20T13:06:36;7.97;;;1.20;;
72791;SDS011;60907;53.268;8.764;2023-12-20T13:09:02;14.25;;;1.38;;
72791;SDS011;60907;53.268;8.764;2023-12-20T13:11:30;5.78;;;1.15;;
72791;SDS011;60907;53.268;8.764;2023-12-20T13:13:56;6.03;;;1.13;;
72791;SDS011;60907;53.268;8.764;2023-12-20T13:16:23;12.63;;;1.25;;
72791;SDS011;60907;53.268;8.764;2023-12-20T13:18:49;6.80;;;1.17;;
72791;SDS011;60907;53.268;8.764;2023-12-20T13:21:15;9.48;;;1.42;;
72791;SDS011;60907;53.268;8.764;2023-12-20T13:23:41;9.30;;;1.80;;
72791;SDS011;60907;53.268;8.764;2023-12-20T13:26:06;8.63;;;1.35;;
72791;SDS011;60907;53.268;8.764;2023-12-20T13:28:32;9.98;;;1.50;;
72791;SDS011;60907;53.268;8.764;2023-12-20T13:30:58;8.45;;;1.50;;
72791;SDS011;60907;53.268;8.764;2023-12-20T13:33:23;7.38;;;1.60;;
72791;SDS011;60907;53.268;8.764;2023-12-20T13:35:49;8.80;;;1.40;;
72791;SDS011;60907;53.268;8.764;2023-12-20T13:38:15;7.70;;;1.67;;
72791;SDS011;60907;53.268;8.764;2023-12-20T13:40:40;9.73;;;1.40;;
72791;SDS011;60907;53.268;8.764;2023-12-20T13:43:05;5.72;;;1.30;;
72791;SDS011;60907;53.268;8.764;2023-12-20T13:45:31;7.32;;;1.15;;
72791;SDS011;60907;53.268;8.764;2023-12-20T13:47:56;14.13;;;2.00;;
72791;SDS011;60907;53.268;8.764;2023-12-20T13:50:23;8.30;;;1.80;;
72791;SDS011;60907;53.268;8.764;2023-12-20T13:52:49;8.38;;;1.30;;
72791;SDS011;60907;53.268;8.764;2023-12-20T13:55:15;8.27;;;1.60;;
72791;SDS011;60907;53.268;8.764;2023-12-20T13:57:40;6.97;;;1.27;;
72791;SDS011;60907;53.268;8.764;2023-12-20T14:00:06;10.57;;;1.35;;
72791;SDS011;60907;53.268;8.764;2023-12-20T14:02:39;11.30;;;1.77;;
72791;SDS011;60907;53.268;8.764;2023-12-20T14:05:06;12.00;;;1.05;;
72791;SDS011;60907;53.268;8.764;2023-12-20T14:07:31;4.15;;;1.30;;
72791;SDS011;60907;53.268;8.764;2023-12-20T14:09:57;10.48;;;1.50;;
72791;SDS011;60907;53.268;8.764;2023-12-20T14:12:24;9.32;;;1.45;;
72791;SDS011;60907;53.268;8.764;2023-12-20T14:14:50;7.13;;;0.98;;
72791;SDS011;60907;53.268;8.764;2023-12-20T14:17:15;8.40;;;1.17;;
72791;SDS011;60907;53.268;8.764;2023-12-20T14:19:41;5.45;;;1.52;;
72791;SDS011;60907;53.268;8.764;2023-12-20T14:22:06;7.78;;;1.23;;
72791;SDS011;60907;53.268;8.764;2023-12-20T14:24:31;7.57;;;1.63;;
72791;SDS011;60907;53.268;8.764;2023-12-20T14:26:57;12.98;;;1.92;;
72791;SDS011;60907;53.268;8.764;2023-12-20T14:29:23;12.32;;;1.70;;
72791;SDS011;60907;53.268;8.764;2023-12-20T14:31:49;5.78;;;1.00;;
72791;SDS011;60907;53.268;8.764;2023-12-20T14:34:15;7.93;;;1.50;;
72791;SDS011;60907;53.268;8.764;2023-12-20T14:36:40;8.02;;;1.85;;
72791;SDS011;60907;53.268;8.764;2023-12-20T14:39:06;8.50;;;1.70;;
72791;SDS011;60907;53.268;8.764;2023-12-20T14:41:33;12.73;;;2.00;;
72791;SDS011;60907;53.268;8.764;2023-12-20T14:43:59;7.55;;;1.23;;
72791;SDS011;60907;53.268;8.764;2023-12-20T14:46:29;10.32;;;1.63;;